createdAt,value
2022-09-20T00:02:41.874Z,98133.15
2022-09-20T00:05:13.252Z,98129.83
2022-09-20T00:08:16.518Z,98129.80
2022-09-20T00:11:36.199Z,98133.58
2022-09-20T00:14:27.924Z,98133.71
2022-09-20T00:17:36.184Z,98135.31
2022-09-20T00:20:36.668Z,98135.33
2022-09-20T00:23:45.966Z,98133.77
2022-09-20T00:26:25.576Z,98135.02
2022-09-20T00:29:14.530Z,98134.75
2022-09-20T00:31:56.574Z,98133.70
2022-09-20T00:34:49.411Z,98136.73
2022-09-20T00:38:03.991Z,98140.23
2022-09-20T00:40:43.098Z,98138.62
2022-09-20T00:43:42.301Z,98139.57
2022-09-20T00:46:35.173Z,98143.66
2022-09-20T00:49:30.732Z,98141.98
2022-09-20T00:52:45.769Z,98140.23
2022-09-20T00:55:51.327Z,98137.30
2022-09-20T00:58:52.772Z,98132.77
2022-09-20T01:01:32.519Z,98131.96
2022-09-20T01:04:37.326Z,98126.70
2022-09-20T01:07:57.186Z,98129.10
2022-09-20T01:11:15.920Z,98129.96
2022-09-20T01:14:24.792Z,98126.62
2022-09-20T01:17:39.801Z,98123.42
2022-09-20T01:20:45.994Z,98118.52
2022-09-20T01:24:06.424Z,98118.81
2022-09-20T01:27:25.129Z,98117.56
2022-09-20T01:30:43.561Z,98112.73
2022-09-20T01:34:11.909Z,98116.42
2022-09-20T01:37:26.246Z,98115.25
2022-09-20T01:40:22.212Z,98124.14
2022-09-20T01:43:42.707Z,98123.75
2022-09-20T01:47:00.148Z,98127.91
2022-09-20T01:50:24.714Z,98136.58
2022-09-20T01:53:36.785Z,98140.11
2022-09-20T01:56:44.136Z,98137.90
2022-09-20T02:00:05.539Z,98142.57
2022-09-20T02:03:03.183Z,98147.64
2022-09-20T02:06:30.430Z,98153.14
2022-09-20T02:13:40.859Z,98153.89
2022-09-20T02:17:15.367Z,98152.59
2022-09-20T02:23:57.317Z,98152.20
2022-09-20T02:26:56.513Z,98156.10
2022-09-20T02:30:29.503Z,98160.48
2022-09-20T02:33:20.729Z,98160.36
2022-09-20T02:36:34.372Z,98164.15
2022-09-20T02:39:58.405Z,98160.70
2022-09-20T02:43:29.565Z,98161.73
2022-09-20T02:46:21.609Z,98162.25
2022-09-20T02:49:32.969Z,98165.01
2022-09-20T02:52:21.654Z,98169.13
2022-09-20T02:55:06.676Z,98167.60
2022-09-20T02:58:03.776Z,98161.36
2022-09-20T03:00:56.133Z,98162.08
2022-09-20T03:03:27.918Z,98159.43
2022-09-20T03:06:15.204Z,98159.51
2022-09-20T03:08:43.246Z,98156.33
2022-09-20T03:11:27.527Z,98158.08
2022-09-20T03:14:23.303Z,98161.54
2022-09-20T03:16:59.112Z,98162.30
2022-09-20T03:19:27.323Z,98163.31
2022-09-20T03:22:02.486Z,98163.58
2022-09-20T03:24:44.139Z,98162.70
2022-09-20T03:27:15.184Z,98165.83
2022-09-20T03:30:06.463Z,98171.83
2022-09-20T03:32:34.401Z,98171.27
2022-09-20T03:35:06.978Z,98171.54
2022-09-20T03:37:57.911Z,98172.91
2022-09-20T03:40:29.190Z,98177.70
2022-09-20T03:43:04.236Z,98175.51
2022-09-20T03:48:47.499Z,98169.42
2022-09-20T03:51:28.126Z,98167.85
2022-09-20T03:54:05.591Z,98162.77
2022-09-20T03:56:59.565Z,98164.63
2022-09-20T03:59:43.964Z,98167.04
2022-09-20T04:02:45.568Z,98167.70
2022-09-20T04:05:19.554Z,98165.89
2022-09-20T04:08:16.634Z,98167.61
2022-09-20T04:11:03.809Z,98168.55
2022-09-20T04:13:38.228Z,98174.93
2022-09-20T04:16:22.592Z,98174.53
2022-09-20T04:18:58.043Z,98180.43
2022-09-20T04:21:46.402Z,98184.54
2022-09-20T04:24:23.394Z,98185.86
2022-09-20T04:26:56.674Z,98191.93
2022-09-20T04:29:36.787Z,98198.16
2022-09-20T04:32:12.909Z,98200.55
2022-09-20T04:35:07.788Z,98206.23
2022-09-20T04:37:38.611Z,98207.30
2022-09-20T04:40:10.474Z,98209.93
2022-09-20T04:43:03.133Z,98211.33
2022-09-20T04:45:35.120Z,98212.09
2022-09-20T04:48:24.380Z,98206.39
2022-09-20T04:51:13.603Z,98212.73
2022-09-20T04:57:52.220Z,98225.16
2022-09-20T05:01:12.815Z,98224.60
2022-09-20T05:04:46.394Z,98223.27
2022-09-20T05:07:57.115Z,98222.43
2022-09-20T05:11:15.471Z,98226.83
2022-09-20T05:14:03.526Z,98229.36
2022-09-20T05:17:08.151Z,98225.48
2022-09-20T05:19:45.082Z,98224.70
2022-09-20T05:22:36.124Z,98224.83
2022-09-20T05:25:32.773Z,98224.37
2022-09-20T05:28:32.866Z,98218.63
2022-09-20T05:31:08.068Z,98218.52
2022-09-20T05:34:17.124Z,98221.10
2022-09-20T05:36:56.613Z,98216.42
2022-09-20T05:39:43.563Z,98218.25
2022-09-20T05:43:22.747Z,98221.83
2022-09-20T05:46:38.357Z,98223.54
2022-09-20T05:49:44.149Z,98225.21
2022-09-20T05:56:38.795Z,98216.88
2022-09-20T06:00:27.095Z,98219.16
2022-09-20T06:02:55.759Z,98219.98
2022-09-20T06:06:07.144Z,98220.35
2022-09-20T06:37:27.310Z,98211.34
2022-09-20T06:44:03.448Z,98214.03
2022-09-20T06:46:39.564Z,98212.35
2022-09-20T06:49:32.177Z,98213.06
2022-09-20T07:06:04.699Z,98226.50
2022-09-20T07:08:54.919Z,98231.36
2022-09-20T07:12:01.189Z,98235.36
2022-09-20T07:14:58.412Z,98234.30
2022-09-20T07:18:28.479Z,98240.60
2022-09-20T08:03:33.487Z,98227.25
2022-09-20T08:06:35.159Z,98231.55
2022-09-20T08:09:05.238Z,98232.51
2022-09-20T08:11:48.851Z,98230.78
2022-09-20T08:14:18.167Z,98239.94
2022-09-20T08:16:47.649Z,98237.41
2022-09-20T08:19:21.050Z,98237.73
2022-09-20T08:21:54.859Z,98239.81
2022-09-20T08:24:45.192Z,98238.88
2022-09-20T08:27:15.970Z,98233.24
2022-09-20T08:29:43.972Z,98237.72
2022-09-20T08:32:12.375Z,98239.60
2022-09-20T08:34:40.915Z,98234.48
2022-09-20T08:37:09.053Z,98239.17
2022-09-20T08:42:46.886Z,98231.98
2022-09-20T08:45:33.675Z,98230.10
2022-09-20T08:48:26.896Z,98230.20
2022-09-20T08:50:55.049Z,98227.42
2022-09-20T08:53:22.957Z,98229.20
2022-09-20T08:55:50.794Z,98222.64
2022-09-20T08:58:19.365Z,98222.21
2022-09-20T09:00:47.793Z,98222.11
2022-09-20T09:03:17.771Z,98217.95
2022-09-20T09:05:47.299Z,98220.38
2022-09-20T09:08:19.738Z,98220.08
2022-09-20T09:10:54.905Z,98221.04
2022-09-20T09:13:30.272Z,98216.33
2022-09-20T09:15:59.899Z,98216.33
2022-09-20T09:18:31.801Z,98214.50
2022-09-20T09:21:00.387Z,98210.63
2022-09-20T09:23:29.271Z,98206.64
2022-09-20T09:26:03.112Z,98204.77
2022-09-20T09:28:36.895Z,98215.66
2022-09-20T09:31:38.669Z,98215.36
2022-09-20T09:34:26.161Z,98208.77
2022-09-20T09:36:55.507Z,98209.42
2022-09-20T09:39:35.617Z,98211.72
2022-09-20T09:42:23.882Z,98213.48
2022-09-20T09:44:51.845Z,98207.23
2022-09-20T09:47:28.218Z,98207.10
2022-09-20T09:50:00.761Z,98207.78
2022-09-20T09:52:33.521Z,98205.08
2022-09-20T09:55:05.439Z,98200.92
2022-09-20T09:57:56.087Z,98204.19
2022-09-20T10:00:25.091Z,98204.88
2022-09-20T10:03:03.065Z,98199.77
2022-09-20T10:05:57.588Z,98202.22
2022-09-20T10:08:35.424Z,98203.48
2022-09-20T10:11:21.935Z,98208.42
2022-09-20T10:14:08.039Z,98209.52
2022-09-20T10:16:45.585Z,98203.61
2022-09-20T10:19:23.532Z,98204.90
2022-09-20T10:22:02.102Z,98206.69
2022-09-20T10:24:41.844Z,98202.84
2022-09-20T10:27:22.770Z,98204.02
2022-09-20T10:30:09.532Z,98211.91
2022-09-20T10:32:46.077Z,98212.04
2022-09-20T10:35:16.140Z,98206.30
2022-09-20T10:42:15.556Z,98206.52
2022-09-20T10:44:56.059Z,98202.58
2022-09-20T10:48:01.084Z,98200.98
2022-09-20T10:50:44.809Z,98206.41
2022-09-20T10:53:28.098Z,98204.49
2022-09-20T10:56:02.763Z,98205.42
2022-09-20T10:58:30.718Z,98205.30
2022-09-20T11:00:59.367Z,98208.98
2022-09-20T11:11:09.642Z,98206.66
2022-09-20T11:14:46.923Z,98204.45
2022-09-20T11:35:17.664Z,98182.94
2022-09-20T11:38:34.370Z,98179.48
2022-09-20T11:42:02.131Z,98177.41
2022-09-20T11:45:28.767Z,98179.23
2022-09-20T11:48:22.239Z,98174.36
2022-09-20T11:51:29.531Z,98172.17
2022-09-20T11:54:09.289Z,98172.38
2022-09-20T11:57:17.048Z,98173.41
2022-09-20T12:00:30.991Z,98175.52
2022-09-20T12:03:01.183Z,98169.59
2022-09-20T12:44:24.869Z,98188.92
2022-09-20T12:47:02.532Z,98186.61
2022-09-20T12:53:19.352Z,98183.50
2022-09-20T12:56:17.238Z,98181.91
2022-09-20T12:58:51.694Z,98186.19
2022-09-20T13:01:43.582Z,98184.11
2022-09-20T13:04:54.517Z,98179.65
2022-09-20T13:07:45.056Z,98182.35
2022-09-20T13:10:39.854Z,98186.83
2022-09-20T13:13:39.631Z,98183.45
2022-09-20T13:48:57.885Z,98176.64
2022-09-20T13:51:49.616Z,98173.88
2022-09-20T14:27:11.409Z,98170.79
2022-09-20T14:31:19.224Z,98178.76
2022-09-20T14:38:15.540Z,98185.20
2022-09-20T14:41:39.703Z,98185.41
2022-09-20T14:51:29.622Z,98185.17
2022-09-20T14:54:06.656Z,98187.22
2022-09-20T14:56:38.568Z,98188.73
2022-09-20T14:59:09.765Z,98189.62
2022-09-20T15:01:41.277Z,98196.00
2022-09-20T15:04:11.041Z,98198.73
2022-09-20T15:06:40.401Z,98205.05
2022-09-20T15:09:11.759Z,98203.77
2022-09-20T15:11:41.041Z,98205.85
2022-09-20T15:14:09.132Z,98206.92
2022-09-20T15:16:37.435Z,98210.36
2022-09-20T15:19:26.559Z,98203.02
2022-09-20T15:21:54.784Z,98201.73
2022-09-20T15:24:35.707Z,98206.73
2022-09-20T15:27:04.394Z,98209.98
2022-09-20T15:29:33.042Z,98205.66
2022-09-20T15:32:03.055Z,98206.91
2022-09-20T15:34:31.359Z,98208.22
2022-09-20T15:36:59.497Z,98206.69
2022-09-20T15:39:28.170Z,98210.20
2022-09-20T15:41:57.401Z,98213.59
2022-09-20T15:44:25.685Z,98211.98
2022-09-20T15:46:57.260Z,98207.48
2022-09-20T15:49:25.458Z,98210.89
2022-09-20T15:51:53.748Z,98212.93
2022-09-20T15:54:22.023Z,98212.08
2022-09-20T15:56:53.376Z,98217.77
2022-09-20T15:59:25.700Z,98216.05
2022-09-20T16:02:10.567Z,98211.14
2022-09-20T16:08:40.548Z,98220.05
2022-09-20T16:11:23.020Z,98221.71
2022-09-20T16:21:58.314Z,98226.35
2022-09-20T17:01:52.661Z,98258.64
2022-09-20T17:04:24.920Z,98259.56
2022-09-20T17:06:54.778Z,98259.02
2022-09-20T17:09:23.094Z,98263.58
2022-09-20T17:11:56.943Z,98264.04
2022-09-20T17:14:53.030Z,98269.13
2022-09-20T17:17:24.846Z,98271.42
2022-09-20T17:20:27.272Z,98274.17
2022-09-20T17:23:34.816Z,98277.84
2022-09-20T17:26:23.095Z,98281.61
2022-09-20T17:28:56.593Z,98284.36
2022-09-20T17:32:13.463Z,98282.52
2022-09-20T17:37:54.207Z,98290.02
2022-09-20T17:40:32.110Z,98294.52
2022-09-20T17:43:55.136Z,98293.06
2022-09-20T17:46:31.658Z,98298.54
2022-09-20T17:49:22.675Z,98295.58
2022-09-20T17:52:10.381Z,98301.00
2022-09-20T17:54:39.961Z,98299.95
2022-09-20T17:57:15.407Z,98299.98
2022-09-20T17:59:43.706Z,98303.55
2022-09-20T19:00:46.491Z,98366.75
2022-09-20T19:03:27.541Z,98368.14
2022-09-20T19:06:18.439Z,98363.13
2022-09-20T19:08:59.436Z,98365.54
2022-09-20T19:11:32.461Z,98362.65
2022-09-20T19:14:06.827Z,98357.17
2022-09-20T19:16:37.164Z,98357.95
2022-09-20T19:19:25.070Z,98358.48
2022-09-20T19:22:39.153Z,98362.60
2022-09-20T19:25:42.896Z,98365.33
2022-09-20T19:28:12.609Z,98368.77
2022-09-20T19:30:42.880Z,98369.95
2022-09-20T19:33:18.061Z,98373.23
2022-09-20T19:35:49.605Z,98376.48
2022-09-20T19:38:23.577Z,98380.17
2022-09-20T19:41:09.030Z,98385.43
2022-09-20T19:43:53.244Z,98379.05
2022-09-20T19:46:40.056Z,98376.77
2022-09-20T19:49:11.189Z,98377.73
2022-09-20T19:51:41.309Z,98378.61
2022-09-20T19:54:15.186Z,98380.75
2022-09-20T19:56:46.422Z,98382.66
2022-09-20T19:59:23.979Z,98382.23
2022-09-20T20:01:52.719Z,98384.99
2022-09-20T20:04:21.404Z,98392.67
2022-09-20T20:07:09.270Z,98395.30
2022-09-20T20:09:53.366Z,98393.16
2022-09-20T20:12:53.182Z,98393.09
2022-09-20T20:15:38.234Z,98393.82
2022-09-20T20:18:25.084Z,98396.39
2022-09-20T20:20:55.192Z,98397.43
2022-09-20T20:27:03.920Z,98399.84
2022-09-20T20:30:22.149Z,98397.15
2022-09-20T20:33:20.902Z,98396.07
2022-09-20T20:35:54.432Z,98398.64
2022-09-20T20:38:26.518Z,98399.13
2022-09-20T20:41:29.219Z,98395.95
2022-09-20T20:43:57.944Z,98396.47
2022-09-20T20:46:27.709Z,98400.02
2022-09-20T20:48:56.290Z,98399.30
2022-09-20T20:51:27.426Z,98402.80
2022-09-20T20:53:55.533Z,98408.81
2022-09-20T20:56:28.932Z,98407.88
2022-09-20T20:59:01.703Z,98405.89
2022-09-20T21:01:33.878Z,98401.83
2022-09-20T21:04:05.195Z,98399.65
2022-09-20T21:06:35.426Z,98401.31
2022-09-20T21:09:04.488Z,98399.15
2022-09-20T21:11:36.081Z,98404.90
2022-09-20T21:14:06.733Z,98409.88
2022-09-20T21:16:37.951Z,98410.05
2022-09-20T21:19:06.368Z,98409.78
2022-09-20T21:21:40.637Z,98407.61
2022-09-20T21:24:09.942Z,98405.08
2022-09-20T21:26:38.914Z,98408.78
2022-09-20T21:29:11.250Z,98409.39
2022-09-20T21:31:41.478Z,98410.77
2022-09-20T21:34:10.923Z,98405.98
2022-09-20T21:36:42.092Z,98402.23
2022-09-20T21:39:10.452Z,98405.42
2022-09-20T21:41:39.930Z,98404.98
2022-09-20T21:44:10.137Z,98400.67
2022-09-20T21:46:40.289Z,98398.17
2022-09-20T21:49:11.569Z,98397.55
2022-09-20T21:51:53.335Z,98397.43
2022-09-20T21:54:49.550Z,98392.68
2022-09-20T21:57:17.940Z,98391.89
2022-09-20T22:00:47.584Z,98391.03
2022-09-20T22:04:05.617Z,98391.39
2022-09-20T22:06:56.859Z,98389.91
2022-09-20T22:09:28.553Z,98390.10
2022-09-20T22:11:56.912Z,98387.77
2022-09-20T22:14:26.519Z,98387.80
2022-09-20T22:16:54.853Z,98390.13
2022-09-20T22:19:24.181Z,98390.33
2022-09-20T22:22:17.398Z,98391.21
2022-09-20T22:25:22.195Z,98395.55
2022-09-20T22:28:26.235Z,98392.19
2022-09-20T22:31:30.067Z,98394.77
2022-09-20T22:34:59.453Z,98395.81
2022-09-20T22:37:51.015Z,98397.02
2022-09-20T22:41:20.059Z,98398.16
2022-09-20T22:44:28.080Z,98399.63
2022-09-20T22:47:56.913Z,98397.74
2022-09-20T22:50:57.399Z,98401.40
2022-09-20T22:53:51.998Z,98403.09
2022-09-20T22:57:19.558Z,98403.08
2022-09-20T23:00:27.664Z,98400.31
2022-09-20T23:03:50.557Z,98391.27
2022-09-20T23:07:09.279Z,98393.48
2022-09-20T23:10:16.559Z,98397.80
2022-09-20T23:13:47.010Z,98402.06
2022-09-20T23:16:57.003Z,98403.73
2022-09-20T23:20:14.041Z,98407.75
2022-09-20T23:23:12.470Z,98410.13
2022-09-20T23:26:23.198Z,98412.95
2022-09-20T23:29:45.093Z,98411.50
2022-09-20T23:32:56.126Z,98417.61
2022-09-20T23:36:18.682Z,98424.28
2022-09-20T23:39:49.620Z,98424.22
2022-09-20T23:43:11.938Z,98423.44
2022-09-20T23:46:40.746Z,98421.52
2022-09-20T23:49:47.175Z,98425.21
2022-09-20T23:52:48.868Z,98429.33
2022-09-20T23:56:15.466Z,98429.40
2022-09-20T23:59:38.455Z,98432.48
